Time;durP1;ratioP1;P1;durP2;ratioP2;P2;SDS_P1;SDS_P2;PMS_P1;PMS_P2;Temp;Humidity;BMP_temperature;BMP_pressure;BME280_temperature;BME280_humidity;BME280_pressure;Samples;Min_cycle;Max_cycle;Signal;HPM_P1;HPM_P2
2021/05/10 00:00:01;;;;;;;2.6;1.75;;;;;;;15.54;49.84473;94366.42;;;;
2021/05/10 00:01:03;;;;;;;2.6;1.75;;;;;;;15.54;49.84473;94366.42;;;;
2021/05/10 00:02:04;;;;;;;3.4;1.8;;;;;;;15.42;50.02734;94356.47;;;;
2021/05/10 00:03:04;;;;;;;3.4;1.8;;;;;;;15.42;50.02734;94356.47;;;;
2021/05/10 00:04:05;;;;;;;3.4;1.8;;;;;;;15.42;50.02734;94356.47;;;;
2021/05/10 00:05:06;;;;;;;3.4;1.8;;;;;;;15.42;50.02734;94356.47;;;;
2021/05/10 00:06:07;;;;;;;3.4;1.8;;;;;;;15.42;50.02734;94356.47;;;;
2021/05/10 00:07:09;;;;;;;3.4;1.8;;;;;;;15.42;50.02734;94356.47;;;;
2021/05/10 00:08:09;;;;;;;3.4;1.8;;;;;;;15.42;50.02734;94356.47;;;;
2021/05/10 00:09:10;;;;;;;3.4;1.8;;;;;;;15.42;50.02734;94356.47;;;;
2021/05/10 00:10:10;;;;;;;3.4;1.8;;;;;;;15.42;50.02734;94356.47;;;;
2021/05/10 00:11:11;;;;;;;3.4;1.8;;;;;;;15.42;50.02734;94356.47;;;;
2021/05/10 00:12:13;;;;;;;3.4;1.8;;;;;;;15.42;50.02734;94356.47;;;;
2021/05/10 00:13:16;;;;;;;2.05;1.7;;;;;;;15.17;50.6416;94358.33;;;;
2021/05/10 00:14:26;;;;;;;2.05;1.7;;;;;;;15.17;50.6416;94358.33;;;;
2021/05/10 00:15:27;;;;;;;2.05;1.7;;;;;;;15.17;50.6416;94358.33;;;;
2021/05/10 00:16:28;;;;;;;2.05;1.7;;;;;;;15.17;50.6416;94358.33;;;;
2021/05/10 00:17:28;;;;;;;2.05;1.7;;;;;;;15.17;50.6416;94358.33;;;;
2021/05/10 00:18:29;;;;;;;2.05;1.7;;;;;;;15.17;50.6416;94358.33;;;;
2021/05/10 00:19:29;;;;;;;2.05;1.7;;;;;;;15.17;50.6416;94358.33;;;;
2021/05/10 00:20:30;;;;;;;2.05;1.7;;;;;;;15.17;50.6416;94358.33;;;;
2021/05/10 00:21:32;;;;;;;2.05;1.7;;;;;;;15.17;50.6416;94358.33;;;;
2021/05/10 00:22:33;;;;;;;2.05;1.7;;;;;;;15.17;50.6416;94358.33;;;;
2021/05/10 00:23:33;;;;;;;2.65;1.75;;;;;;;15.01;51.17871;94351.42;;;;
2021/05/10 00:24:34;;;;;;;2.65;1.75;;;;;;;15.01;51.17871;94351.42;;;;
2021/05/10 00:25:35;;;;;;;2.65;1.75;;;;;;;15.01;51.17871;94351.42;;;;
2021/05/10 00:26:36;;;;;;;2.65;1.75;;;;;;;15.01;51.17871;94351.42;;;;
2021/05/10 00:27:36;;;;;;;2.65;1.75;;;;;;;15.01;51.17871;94351.42;;;;
2021/05/10 00:28:36;;;;;;;2.65;1.75;;;;;;;15.01;51.17871;94351.42;;;;
2021/05/10 00:29:37;;;;;;;2.65;1.75;;;;;;;15.01;51.17871;94351.42;;;;
2021/05/10 00:30:37;;;;;;;2.65;1.75;;;;;;;15.01;51.17871;94351.42;;;;
2021/05/10 00:31:38;;;;;;;2.65;1.75;;;;;;;15.01;51.17871;94351.42;;;;
2021/05/10 00:32:38;;;;;;;2.65;1.75;;;;;;;15.01;51.17871;94351.42;;;;
2021/05/10 00:33:39;;;;;;;3.2;1.85;;;;;;;14.88;51.55469;94349.34;;;;
2021/05/10 00:34:39;;;;;;;3.2;1.85;;;;;;;14.88;51.55469;94349.34;;;;
2021/05/10 00:35:40;;;;;;;3.2;1.85;;;;;;;14.88;51.55469;94349.34;;;;
2021/05/10 00:36:40;;;;;;;3.2;1.85;;;;;;;14.88;51.55469;94349.34;;;;
2021/05/10 00:37:41;;;;;;;3.2;1.85;;;;;;;14.88;51.55469;94349.34;;;;
2021/05/10 00:38:42;;;;;;;3.2;1.85;;;;;;;14.88;51.55469;94349.34;;;;
2021/05/10 00:39:43;;;;;;;3.2;1.85;;;;;;;14.88;51.55469;94349.34;;;;
2021/05/10 00:40:43;;;;;;;3.2;1.85;;;;;;;14.88;51.55469;94349.34;;;;
2021/05/10 00:41:44;;;;;;;3.2;1.85;;;;;;;14.88;51.55469;94349.34;;;;
2021/05/10 00:42:45;;;;;;;3.2;1.85;;;;;;;14.88;51.55469;94349.34;;;;
2021/05/10 00:43:45;;;;;;;3.2;1.85;;;;;;;14.88;51.55469;94349.34;;;;
2021/05/10 00:44:46;;;;;;;3.6;1.8;;;;;;;14.55;52.28809;94352.89;;;;
2021/05/10 00:45:47;;;;;;;3.6;1.8;;;;;;;14.55;52.28809;94352.89;;;;
2021/05/10 00:46:48;;;;;;;3.6;1.8;;;;;;;14.55;52.28809;94352.89;;;;
2021/05/10 00:47:49;;;;;;;3.6;1.8;;;;;;;14.55;52.28809;94352.89;;;;
2021/05/10 00:48:50;;;;;;;3.6;1.8;;;;;;;14.55;52.28809;94352.89;;;;
2021/05/10 00:49:50;;;;;;;3.6;1.8;;;;;;;14.55;52.28809;94352.89;;;;
2021/05/10 00:50:51;;;;;;;3.6;1.8;;;;;;;14.55;52.28809;94352.89;;;;
2021/05/10 00:51:51;;;;;;;3.6;1.8;;;;;;;14.55;52.28809;94352.89;;;;
2021/05/10 00:52:52;;;;;;;3.6;1.8;;;;;;;14.55;52.28809;94352.89;;;;
2021/05/10 00:53:52;;;;;;;3.6;1.8;;;;;;;14.55;52.28809;94352.89;;;;
2021/05/10 00:54:53;;;;;;;3.6;1.8;;;;;;;14.55;52.28809;94352.89;;;;
2021/05/10 00:55:55;;;;;;;2.55;1.95;;;;;;;14.19;52.97266;94358.26;;;;
2021/05/10 00:56:55;;;;;;;2.55;1.95;;;;;;;14.19;52.97266;94358.26;;;;
2021/05/10 00:58:01;;;;;;;2.55;1.95;;;;;;;14.19;52.97266;94358.26;;;;
2021/05/10 00:59:02;;;;;;;2.55;1.95;;;;;;;14.19;52.97266;94358.26;;;;
2021/05/10 01:00:03;;;;;;;2.55;1.95;;;;;;;14.19;52.97266;94358.26;;;;
2021/05/10 01:01:06;;;;;;;2.55;1.95;;;;;;;14.19;52.97266;94358.26;;;;
2021/05/10 01:02:07;;;;;;;2.55;1.95;;;;;;;14.19;52.97266;94358.26;;;;
2021/05/10 01:03:08;;;;;;;2.55;1.95;;;;;;;14.19;52.97266;94358.26;;;;
2021/05/10 01:04:11;;;;;;;2.55;1.95;;;;;;;14.19;52.97266;94358.26;;;;
2021/05/10 01:05:11;;;;;;;2.55;1.95;;;;;;;14.19;52.97266;94358.26;;;;
2021/05/10 01:06:14;;;;;;;1.9;1.8;;;;;;;14.14;53.45508;94360.6;;;;
2021/05/10 01:07:15;;;;;;;1.9;1.8;;;;;;;14.14;53.45508;94360.6;;;;
2021/05/10 01:08:15;;;;;;;1.9;1.8;;;;;;;14.14;53.45508;94360.6;;;;
2021/05/10 01:09:16;;;;;;;1.9;1.8;;;;;;;14.14;53.45508;94360.6;;;;
2021/05/10 01:10:16;;;;;;;1.9;1.8;;;;;;;14.14;53.45508;94360.6;;;;
2021/05/10 01:11:20;;;;;;;1.9;1.8;;;;;;;14.14;53.45508;94360.6;;;;
2021/05/10 01:12:20;;;;;;;1.9;1.8;;;;;;;14.14;53.45508;94360.6;;;;
2021/05/10 01:13:21;;;;;;;1.9;1.8;;;;;;;14.14;53.45508;94360.6;;;;
2021/05/10 01:14:21;;;;;;;1.9;1.8;;;;;;;14.14;53.45508;94360.6;;;;
2021/05/10 01:15:22;;;;;;;1.9;1.8;;;;;;;14.14;53.45508;94360.6;;;;
2021/05/10 01:16:25;;;;;;;2;1.7;;;;;;;14.43;53.1084;94352.95;;;;
2021/05/10 01:17:26;;;;;;;2;1.7;;;;;;;14.43;53.1084;94352.95;;;;
2021/05/10 01:18:26;;;;;;;2;1.7;;;;;;;14.43;53.1084;94352.95;;;;
2021/05/10 01:19:27;;;;;;;2;1.7;;;;;;;14.43;53.1084;94352.95;;;;
2021/05/10 01:20:28;;;;;;;2;1.7;;;;;;;14.43;53.1084;94352.95;;;;
2021/05/10 01:21:29;;;;;;;2;1.7;;;;;;;14.43;53.1084;94352.95;;;;
2021/05/10 01:22:31;;;;;;;2;1.7;;;;;;;14.43;53.1084;94352.95;;;;
2021/05/10 01:23:39;;;;;;;2;1.7;;;;;;;14.43;53.1084;94352.95;;;;
2021/05/10 01:24:41;;;;;;;2;1.7;;;;;;;14.43;53.1084;94352.95;;;;
2021/05/10 01:25:41;;;;;;;2;1.7;;;;;;;14.43;53.1084;94352.95;;;;
2021/05/10 01:26:42;;;;;;;2;1.7;;;;;;;14.43;53.1084;94352.95;;;;
2021/05/10 01:27:43;;;;;;;4;1.9;;;;;;;14.71;52.88281;94348.96;;;;
2021/05/10 01:28:44;;;;;;;4;1.9;;;;;;;14.71;52.88281;94348.96;;;;
2021/05/10 01:29:45;;;;;;;4;1.9;;;;;;;14.71;52.88281;94348.96;;;;
2021/05/10 01:30:49;;;;;;;4;1.9;;;;;;;14.71;52.88281;94348.96;;;;
2021/05/10 01:31:49;;;;;;;4;1.9;;;;;;;14.71;52.88281;94348.96;;;;
2021/05/10 01:32:50;;;;;;;4;1.9;;;;;;;14.71;52.88281;94348.96;;;;
2021/05/10 01:33:52;;;;;;;4;1.9;;;;;;;14.71;52.88281;94348.96;;;;
2021/05/10 01:34:53;;;;;;;4;1.9;;;;;;;14.71;52.88281;94348.96;;;;
2021/05/10 01:35:53;;;;;;;4;1.9;;;;;;;14.71;52.88281;94348.96;;;;
2021/05/10 01:36:54;;;;;;;4;1.9;;;;;;;14.71;52.88281;94348.96;;;;
2021/05/10 01:37:54;;;;;;;2.3;1.8;;;;;;;14.96;52.52148;94343.44;;;;
2021/05/10 01:38:55;;;;;;;2.3;1.8;;;;;;;14.96;52.52148;94343.44;;;;
2021/05/10 01:39:55;;;;;;;2.3;1.8;;;;;;;14.96;52.52148;94343.44;;;;
2021/05/10 01:40:56;;;;;;;2.3;1.8;;;;;;;14.96;52.52148;94343.44;;;;
2021/05/10 01:41:56;;;;;;;2.3;1.8;;;;;;;14.96;52.52148;94343.44;;;;
2021/05/10 01:42:57;;;;;;;2.3;1.8;;;;;;;14.96;52.52148;94343.44;;;;
2021/05/10 01:43:58;;;;;;;2.3;1.8;;;;;;;14.96;52.52148;94343.44;;;;
2021/05/10 01:44:58;;;;;;;2.3;1.8;;;;;;;14.96;52.52148;94343.44;;;;
2021/05/10 01:45:59;;;;;;;2.3;1.8;;;;;;;14.96;52.52148;94343.44;;;;
2021/05/10 01:46:59;;;;;;;2.3;1.8;;;;;;;14.96;52.52148;94343.44;;;;
2021/05/10 01:48:00;;;;;;;2.3;1.8;;;;;;;14.96;52.52148;94343.44;;;;
2021/05/10 01:49:02;;;;;;;2.1;1.7;;;;;;;15.18;52.23145;94352.34;;;;
2021/05/10 01:50:03;;;;;;;2.1;1.7;;;;;;;15.18;52.23145;94352.34;;;;
2021/05/10 01:51:10;;;;;;;2.1;1.7;;;;;;;15.18;52.23145;94352.34;;;;
2021/05/10 01:52:10;;;;;;;2.1;1.7;;;;;;;15.18;52.23145;94352.34;;;;
2021/05/10 01:53:12;;;;;;;2.1;1.7;;;;;;;15.18;52.23145;94352.34;;;;
2021/05/10 01:54:13;;;;;;;2.1;1.7;;;;;;;15.18;52.23145;94352.34;;;;
2021/05/10 01:55:14;;;;;;;2.1;1.7;;;;;;;15.18;52.23145;94352.34;;;;
2021/05/10 01:56:15;;;;;;;2.1;1.7;;;;;;;15.18;52.23145;94352.34;;;;
2021/05/10 01:57:16;;;;;;;2.1;1.7;;;;;;;15.18;52.23145;94352.34;;;;
2021/05/10 01:58:18;;;;;;;2.1;1.7;;;;;;;15.18;52.23145;94352.34;;;;
2021/05/10 01:59:18;;;;;;;3.4;2.15;;;;;;;15.43;51.86914;94356.74;;;;
2021/05/10 02:00:18;;;;;;;3.4;2.15;;;;;;;15.43;51.86914;94356.74;;;;
2021/05/10 02:01:22;;;;;;;3.4;2.15;;;;;;;15.43;51.86914;94356.74;;;;
2021/05/10 02:02:23;;;;;;;3.4;2.15;;;;;;;15.43;51.86914;94356.74;;;;
2021/05/10 02:03:23;;;;;;;3.4;2.15;;;;;;;15.43;51.86914;94356.74;;;;
2021/05/10 02:04:24;;;;;;;3.4;2.15;;;;;;;15.43;51.86914;94356.74;;;;
2021/05/10 02:05:25;;;;;;;3.4;2.15;;;;;;;15.43;51.86914;94356.74;;;;
2021/05/10 02:06:25;;;;;;;3.4;2.15;;;;;;;15.43;51.86914;94356.74;;;;
2021/05/10 02:07:27;;;;;;;3.4;2.15;;;;;;;15.43;51.86914;94356.74;;;;
2021/05/10 02:08:28;;;;;;;3.4;2.15;;;;;;;15.43;51.86914;94356.74;;;;
2021/05/10 02:09:29;;;;;;;3.4;2.15;;;;;;;15.43;51.86914;94356.74;;;;
2021/05/10 02:10:30;;;;;;;2.1;1.9;;;;;;;15.45;51.76367;94362.55;;;;
2021/05/10 02:11:33;;;;;;;2.1;1.9;;;;;;;15.45;51.76367;94362.55;;;;
2021/05/10 02:12:34;;;;;;;2.1;1.9;;;;;;;15.45;51.76367;94362.55;;;;
2021/05/10 02:13:35;;;;;;;2.1;1.9;;;;;;;15.45;51.76367;94362.55;;;;
2021/05/10 02:14:35;;;;;;;2.1;1.9;;;;;;;15.45;51.76367;94362.55;;;;
2021/05/10 02:15:36;;;;;;;2.1;1.9;;;;;;;15.45;51.76367;94362.55;;;;
2021/05/10 02:16:39;;;;;;;2.1;1.9;;;;;;;15.45;51.76367;94362.55;;;;
2021/05/10 02:17:39;;;;;;;2.1;1.9;;;;;;;15.45;51.76367;94362.55;;;;
2021/05/10 02:18:40;;;;;;;2.1;1.9;;;;;;;15.45;51.76367;94362.55;;;;
2021/05/10 02:19:40;;;;;;;2.1;1.9;;;;;;;15.45;51.76367;94362.55;;;;
2021/05/10 02:20:41;;;;;;;3.9;1.95;;;;;;;15.51;51.72656;94354.19;;;;
2021/05/10 02:21:42;;;;;;;3.9;1.95;;;;;;;15.51;51.72656;94354.19;;;;
2021/05/10 02:22:42;;;;;;;3.9;1.95;;;;;;;15.51;51.72656;94354.19;;;;
2021/05/10 02:23:50;;;;;;;3.9;1.95;;;;;;;15.51;51.72656;94354.19;;;;
2021/05/10 02:24:50;;;;;;;3.9;1.95;;;;;;;15.51;51.72656;94354.19;;;;
2021/05/10 02:25:51;;;;;;;3.9;1.95;;;;;;;15.51;51.72656;94354.19;;;;
2021/05/10 02:26:53;;;;;;;3.9;1.95;;;;;;;15.51;51.72656;94354.19;;;;
2021/05/10 02:27:54;;;;;;;3.9;1.95;;;;;;;15.51;51.72656;94354.19;;;;
2021/05/10 02:29:01;;;;;;;3.9;1.95;;;;;;;15.51;51.72656;94354.19;;;;
2021/05/10 02:30:02;;;;;;;3.9;1.95;;;;;;;15.51;51.72656;94354.19;;;;
2021/05/10 02:31:03;;;;;;;3.9;1.95;;;;;;;15.51;51.72656;94354.19;;;;
2021/05/10 02:32:04;;;;;;;2.1;1.9;;;;;;;15.65;51.50391;94360.15;;;;
2021/05/10 02:33:05;;;;;;;2.1;1.9;;;;;;;15.65;51.50391;94360.15;;;;
2021/05/10 02:34:07;;;;;;;2.1;1.9;;;;;;;15.65;51.50391;94360.15;;;;
2021/05/10 02:35:08;;;;;;;2.1;1.9;;;;;;;15.65;51.50391;94360.15;;;;
2021/05/10 02:36:09;;;;;;;2.1;1.9;;;;;;;15.65;51.50391;94360.15;;;;
2021/05/10 02:37:12;;;;;;;2.1;1.9;;;;;;;15.65;51.50391;94360.15;;;;
2021/05/10 02:38:13;;;;;;;2.1;1.9;;;;;;;15.65;51.50391;94360.15;;;;
2021/05/10 02:39:14;;;;;;;2.1;1.9;;;;;;;15.65;51.50391;94360.15;;;;
2021/05/10 02:40:15;;;;;;;2.1;1.9;;;;;;;15.65;51.50391;94360.15;;;;
2021/05/10 02:41:16;;;;;;;2.1;1.9;;;;;;;15.65;51.50391;94360.15;;;;
2021/05/10 02:42:17;;;;;;;3.55;1.9;;;;;;;15.78;51.21387;94347.21;;;;
2021/05/10 02:43:17;;;;;;;3.55;1.9;;;;;;;15.78;51.21387;94347.21;;;;
2021/05/10 02:44:20;;;;;;;3.55;1.9;;;;;;;15.78;51.21387;94347.21;;;;
2021/05/10 02:45:21;;;;;;;3.55;1.9;;;;;;;15.78;51.21387;94347.21;;;;
2021/05/10 02:46:22;;;;;;;3.55;1.9;;;;;;;15.78;51.21387;94347.21;;;;
2021/05/10 02:47:22;;;;;;;3.55;1.9;;;;;;;15.78;51.21387;94347.21;;;;
2021/05/10 02:48:23;;;;;;;3.55;1.9;;;;;;;15.78;51.21387;94347.21;;;;
2021/05/10 02:49:23;;;;;;;3.55;1.9;;;;;;;15.78;51.21387;94347.21;;;;
2021/05/10 02:50:24;;;;;;;3.55;1.9;;;;;;;15.78;51.21387;94347.21;;;;
2021/05/10 02:51:26;;;;;;;3.55;1.9;;;;;;;15.78;51.21387;94347.21;;;;
2021/05/10 02:52:27;;;;;;;2.2;1.9;;;;;;;15.88;51.03906;94358;;;;
2021/05/10 02:53:27;;;;;;;2.2;1.9;;;;;;;15.88;51.03906;94358;;;;
2021/05/10 02:54:28;;;;;;;2.2;1.9;;;;;;;15.88;51.03906;94358;;;;
2021/05/10 02:55:28;;;;;;;2.2;1.9;;;;;;;15.88;51.03906;94358;;;;
2021/05/10 02:56:29;;;;;;;2.2;1.9;;;;;;;15.88;51.03906;94358;;;;
2021/05/10 02:57:29;;;;;;;2.2;1.9;;;;;;;15.88;51.03906;94358;;;;
2021/05/10 02:58:30;;;;;;;2.2;1.9;;;;;;;15.88;51.03906;94358;;;;
2021/05/10 02:59:30;;;;;;;2.2;1.9;;;;;;;15.88;51.03906;94358;;;;
2021/05/10 03:00:31;;;;;;;2.2;1.9;;;;;;;15.88;51.03906;94358;;;;
2021/05/10 03:01:32;;;;;;;2.2;1.9;;;;;;;15.88;51.03906;94358;;;;
2021/05/10 03:02:32;;;;;;;2.2;1.9;;;;;;;15.88;51.03906;94358;;;;
2021/05/10 03:03:33;;;;;;;2.8;1.8;;;;;;;15.96;50.7002;94336.91;;;;
2021/05/10 03:04:33;;;;;;;2.8;1.8;;;;;;;15.96;50.7002;94336.91;;;;
2021/05/10 03:05:34;;;;;;;2.8;1.8;;;;;;;15.96;50.7002;94336.91;;;;
2021/05/10 03:06:34;;;;;;;2.8;1.8;;;;;;;15.96;50.7002;94336.91;;;;
2021/05/10 03:07:35;;;;;;;2.8;1.8;;;;;;;15.96;50.7002;94336.91;;;;
2021/05/10 03:08:36;;;;;;;2.8;1.8;;;;;;;15.96;50.7002;94336.91;;;;
2021/05/10 03:09:36;;;;;;;2.8;1.8;;;;;;;15.96;50.7002;94336.91;;;;
2021/05/10 03:10:37;;;;;;;2.8;1.8;;;;;;;15.96;50.7002;94336.91;;;;
2021/05/10 03:11:38;;;;;;;2.8;1.8;;;;;;;15.96;50.7002;94336.91;;;;
2021/05/10 03:12:38;;;;;;;2.8;1.8;;;;;;;15.96;50.7002;94336.91;;;;
2021/05/10 03:13:40;;;;;;;2.8;1.8;;;;;;;15.96;50.7002;94336.91;;;;
2021/05/10 03:14:40;;;;;;;2.35;1.7;;;;;;;16.05;50.44824;94329.72;;;;
2021/05/10 03:15:41;;;;;;;2.35;1.7;;;;;;;16.05;50.44824;94329.72;;;;
2021/05/10 03:16:41;;;;;;;2.35;1.7;;;;;;;16.05;50.44824;94329.72;;;;
2021/05/10 03:17:42;;;;;;;2.35;1.7;;;;;;;16.05;50.44824;94329.72;;;;
2021/05/10 03:18:43;;;;;;;2.35;1.7;;;;;;;16.05;50.44824;94329.72;;;;
2021/05/10 03:19:43;;;;;;;2.35;1.7;;;;;;;16.05;50.44824;94329.72;;;;
2021/05/10 03:20:44;;;;;;;2.35;1.7;;;;;;;16.05;50.44824;94329.72;;;;
2021/05/10 03:21:44;;;;;;;2.35;1.7;;;;;;;16.05;50.44824;94329.72;;;;
2021/05/10 03:22:46;;;;;;;2.35;1.7;;;;;;;16.05;50.44824;94329.72;;;;
2021/05/10 03:23:47;;;;;;;2.35;1.7;;;;;;;16.05;50.44824;94329.72;;;;
2021/05/10 03:24:48;;;;;;;2.7;1.8;;;;;;;16.14;50.06445;94330.27;;;;
2021/05/10 03:25:48;;;;;;;2.7;1.8;;;;;;;16.14;50.06445;94330.27;;;;
2021/05/10 03:26:49;;;;;;;2.7;1.8;;;;;;;16.14;50.06445;94330.27;;;;
2021/05/10 03:27:49;;;;;;;2.7;1.8;;;;;;;16.14;50.06445;94330.27;;;;
2021/05/10 03:28:51;;;;;;;2.7;1.8;;;;;;;16.14;50.06445;94330.27;;;;
2021/05/10 03:29:51;;;;;;;2.7;1.8;;;;;;;16.14;50.06445;94330.27;;;;
2021/05/10 03:30:52;;;;;;;2.7;1.8;;;;;;;16.14;50.06445;94330.27;;;;
2021/05/10 03:31:53;;;;;;;2.7;1.8;;;;;;;16.14;50.06445;94330.27;;;;
2021/05/10 03:32:53;;;;;;;2.7;1.8;;;;;;;16.14;50.06445;94330.27;;;;
2021/05/10 03:33:54;;;;;;;2.7;1.8;;;;;;;16.14;50.06445;94330.27;;;;
2021/05/10 03:34:54;;;;;;;2.7;1.8;;;;;;;16.14;50.06445;94330.27;;;;
2021/05/10 03:35:55;;;;;;;2;1.8;;;;;;;16.19;49.75488;94347.9;;;;
2021/05/10 03:36:56;;;;;;;2;1.8;;;;;;;16.19;49.75488;94347.9;;;;
2021/05/10 03:37:56;;;;;;;2;1.8;;;;;;;16.19;49.75488;94347.9;;;;
2021/05/10 03:38:57;;;;;;;2;1.8;;;;;;;16.19;49.75488;94347.9;;;;
2021/05/10 03:39:58;;;;;;;2;1.8;;;;;;;16.19;49.75488;94347.9;;;;
2021/05/10 03:41:00;;;;;;;2;1.8;;;;;;;16.19;49.75488;94347.9;;;;
2021/05/10 03:42:01;;;;;;;2;1.8;;;;;;;16.19;49.75488;94347.9;;;;
2021/05/10 03:43:03;;;;;;;2;1.8;;;;;;;16.19;49.75488;94347.9;;;;
2021/05/10 03:44:04;;;;;;;2;1.8;;;;;;;16.19;49.75488;94347.9;;;;
2021/05/10 03:45:04;;;;;;;2;1.8;;;;;;;16.19;49.75488;94347.9;;;;
2021/05/10 03:46:06;;;;;;;2.1;1.9;;;;;;;16.16;49.67383;94350.81;;;;
2021/05/10 03:47:07;;;;;;;2.1;1.9;;;;;;;16.16;49.67383;94350.81;;;;
2021/05/10 03:48:07;;;;;;;2.1;1.9;;;;;;;16.16;49.67383;94350.81;;;;
2021/05/10 03:49:08;;;;;;;2.1;1.9;;;;;;;16.16;49.67383;94350.81;;;;
2021/05/10 03:50:08;;;;;;;2.1;1.9;;;;;;;16.16;49.67383;94350.81;;;;
2021/05/10 03:51:11;;;;;;;2.1;1.9;;;;;;;16.16;49.67383;94350.81;;;;
2021/05/10 03:52:12;;;;;;;2.1;1.9;;;;;;;16.16;49.67383;94350.81;;;;
2021/05/10 03:53:13;;;;;;;2.1;1.9;;;;;;;16.16;49.67383;94350.81;;;;
2021/05/10 03:54:14;;;;;;;2.1;1.9;;;;;;;16.16;49.67383;94350.81;;;;
2021/05/10 03:55:14;;;;;;;2.1;1.9;;;;;;;16.16;49.67383;94350.81;;;;
2021/05/10 03:56:18;;;;;;;2.1;1.9;;;;;;;16.16;49.67383;94350.81;;;;
2021/05/10 03:57:19;;;;;;;2;1.8;;;;;;;16.09;49.66699;94343.42;;;;
2021/05/10 03:58:19;;;;;;;2;1.8;;;;;;;16.09;49.66699;94343.42;;;;
2021/05/10 03:59:20;;;;;;;2;1.8;;;;;;;16.09;49.66699;94343.42;;;;
2021/05/10 04:00:20;;;;;;;2;1.8;;;;;;;16.09;49.66699;94343.42;;;;
2021/05/10 04:01:21;;;;;;;2;1.8;;;;;;;16.09;49.66699;94343.42;;;;
2021/05/10 04:02:22;;;;;;;2;1.8;;;;;;;16.09;49.66699;94343.42;;;;
2021/05/10 04:03:27;;;;;;;2;1.8;;;;;;;16.09;49.66699;94343.42;;;;
2021/05/10 04:04:33;;;;;;;2;1.8;;;;;;;16.09;49.66699;94343.42;;;;
2021/05/10 04:05:52;;;;;;;2;1.8;;;;;;;16.09;49.66699;94343.42;;;;
2021/05/10 04:07:05;;;;;;;2;1.8;;;;;;;16.09;49.66699;94343.42;;;;
2021/05/10 04:08:13;;;;;;;2.45;1.9;;;;;;;16.05;49.65234;94353.27;;;;
2021/05/10 04:09:33;;;;;;;2.45;1.9;;;;;;;16.05;49.65234;94353.27;;;;
2021/05/10 04:10:42;;;;;;;2.45;1.9;;;;;;;16.05;49.65234;94353.27;;;;
2021/05/10 04:16:55;;;;;;;2.45;1.9;;;;;;;16.05;49.65234;94353.27;;;;
2021/05/10 04:17:56;;;;;;;1.9;1.8;;;;;;;16.07;49.72852;94362.09;;;;
2021/05/10 04:18:56;;;;;;;1.9;1.8;;;;;;;16.07;49.72852;94362.09;;;;
2021/05/10 04:19:57;;;;;;;1.9;1.8;;;;;;;16.07;49.72852;94362.09;;;;
2021/05/10 04:20:57;;;;;;;1.9;1.8;;;;;;;16.07;49.72852;94362.09;;;;
2021/05/10 04:21:58;;;;;;;1.9;1.8;;;;;;;16.07;49.72852;94362.09;;;;
2021/05/10 04:22:59;;;;;;;1.9;1.8;;;;;;;16.07;49.72852;94362.09;;;;
2021/05/10 04:23:59;;;;;;;1.9;1.8;;;;;;;16.07;49.72852;94362.09;;;;
2021/05/10 04:25:00;;;;;;;1.9;1.8;;;;;;;16.07;49.72852;94362.09;;;;
2021/05/10 04:26:00;;;;;;;1.9;1.8;;;;;;;16.07;49.72852;94362.09;;;;
2021/05/10 04:27:04;;;;;;;1.9;1.8;;;;;;;16.07;49.72852;94362.09;;;;
2021/05/10 04:28:05;;;;;;;1.9;1.8;;;;;;;16.07;49.72852;94362.09;;;;
2021/05/10 04:29:05;;;;;;;3.15;1.9;;;;;;;16.24;49.45508;94344.56;;;;
2021/05/10 04:30:06;;;;;;;3.15;1.9;;;;;;;16.24;49.45508;94344.56;;;;
2021/05/10 04:31:07;;;;;;;3.15;1.9;;;;;;;16.24;49.45508;94344.56;;;;
2021/05/10 04:32:08;;;;;;;3.15;1.9;;;;;;;16.24;49.45508;94344.56;;;;
2021/05/10 04:33:08;;;;;;;3.15;1.9;;;;;;;16.24;49.45508;94344.56;;;;
2021/05/10 04:34:09;;;;;;;3.15;1.9;;;;;;;16.24;49.45508;94344.56;;;;
2021/05/10 04:35:09;;;;;;;3.15;1.9;;;;;;;16.24;49.45508;94344.56;;;;
2021/05/10 04:36:10;;;;;;;3.15;1.9;;;;;;;16.24;49.45508;94344.56;;;;
2021/05/10 04:37:11;;;;;;;3.15;1.9;;;;;;;16.24;49.45508;94344.56;;;;
2021/05/10 04:38:12;;;;;;;3.15;1.9;;;;;;;16.24;49.45508;94344.56;;;;
2021/05/10 04:39:12;;;;;;;3.15;1.9;;;;;;;16.24;49.45508;94344.56;;;;
2021/05/10 04:40:13;;;;;;;3.8;2.3;;;;;;;16.46;49.36914;94339.09;;;;
2021/05/10 04:41:14;;;;;;;3.8;2.3;;;;;;;16.46;49.36914;94339.09;;;;
2021/05/10 04:42:15;;;;;;;3.8;2.3;;;;;;;16.46;49.36914;94339.09;;;;
2021/05/10 04:43:15;;;;;;;3.8;2.3;;;;;;;16.46;49.36914;94339.09;;;;
2021/05/10 04:44:16;;;;;;;3.8;2.3;;;;;;;16.46;49.36914;94339.09;;;;
2021/05/10 04:45:16;;;;;;;3.8;2.3;;;;;;;16.46;49.36914;94339.09;;;;
2021/05/10 04:46:17;;;;;;;3.8;2.3;;;;;;;16.46;49.36914;94339.09;;;;
2021/05/10 04:47:18;;;;;;;3.8;2.3;;;;;;;16.46;49.36914;94339.09;;;;
2021/05/10 04:48:18;;;;;;;3.8;2.3;;;;;;;16.46;49.36914;94339.09;;;;
2021/05/10 04:49:19;;;;;;;3.8;2.3;;;;;;;16.46;49.36914;94339.09;;;;
2021/05/10 04:50:20;;;;;;;2.2;1.9;;;;;;;16.57;49.42578;94364.54;;;;
2021/05/10 04:51:20;;;;;;;2.2;1.9;;;;;;;16.57;49.42578;94364.54;;;;
2021/05/10 04:52:21;;;;;;;2.2;1.9;;;;;;;16.57;49.42578;94364.54;;;;
2021/05/10 04:53:21;;;;;;;2.2;1.9;;;;;;;16.57;49.42578;94364.54;;;;
2021/05/10 04:54:22;;;;;;;2.2;1.9;;;;;;;16.57;49.42578;94364.54;;;;
2021/05/10 04:55:22;;;;;;;2.2;1.9;;;;;;;16.57;49.42578;94364.54;;;;
2021/05/10 04:56:23;;;;;;;2.2;1.9;;;;;;;16.57;49.42578;94364.54;;;;
2021/05/10 04:57:23;;;;;;;2.2;1.9;;;;;;;16.57;49.42578;94364.54;;;;
2021/05/10 04:58:24;;;;;;;2.2;1.9;;;;;;;16.57;49.42578;94364.54;;;;
2021/05/10 04:59:24;;;;;;;2.2;1.9;;;;;;;16.57;49.42578;94364.54;;;;
2021/05/10 05:00:25;;;;;;;2.2;1.9;;;;;;;16.57;49.42578;94364.54;;;;
2021/05/10 05:01:25;;;;;;;2.65;1.95;;;;;;;16.73;49.50977;94373.17;;;;
2021/05/10 05:02:26;;;;;;;2.65;1.95;;;;;;;16.73;49.50977;94373.17;;;;
2021/05/10 05:03:26;;;;;;;2.65;1.95;;;;;;;16.73;49.50977;94373.17;;;;
2021/05/10 05:04:27;;;;;;;2.65;1.95;;;;;;;16.73;49.50977;94373.17;;;;
2021/05/10 05:05:27;;;;;;;2.65;1.95;;;;;;;16.73;49.50977;94373.17;;;;
2021/05/10 05:06:28;;;;;;;2.65;1.95;;;;;;;16.73;49.50977;94373.17;;;;
2021/05/10 05:07:29;;;;;;;2.65;1.95;;;;;;;16.73;49.50977;94373.17;;;;
2021/05/10 05:08:29;;;;;;;2.65;1.95;;;;;;;16.73;49.50977;94373.17;;;;
2021/05/10 05:09:30;;;;;;;2.65;1.95;;;;;;;16.73;49.50977;94373.17;;;;
2021/05/10 05:10:31;;;;;;;2.65;1.95;;;;;;;16.73;49.50977;94373.17;;;;
2021/05/10 05:11:31;;;;;;;2.750001;2.05;;;;;;;17.12;49.35547;94383.33;;;;
2021/05/10 05:12:31;;;;;;;2.750001;2.05;;;;;;;17.12;49.35547;94383.33;;;;
2021/05/10 05:13:32;;;;;;;2.750001;2.05;;;;;;;17.12;49.35547;94383.33;;;;
2021/05/10 05:14:33;;;;;;;2.750001;2.05;;;;;;;17.12;49.35547;94383.33;;;;
2021/05/10 05:15:33;;;;;;;2.750001;2.05;;;;;;;17.12;49.35547;94383.33;;;;
2021/05/10 05:16:34;;;;;;;2.750001;2.05;;;;;;;17.12;49.35547;94383.33;;;;
2021/05/10 05:17:34;;;;;;;2.750001;2.05;;;;;;;17.12;49.35547;94383.33;;;;
2021/05/10 05:18:37;;;;;;;2.750001;2.05;;;;;;;17.12;49.35547;94383.33;;;;
2021/05/10 05:19:37;;;;;;;2.750001;2.05;;;;;;;17.12;49.35547;94383.33;;;;
2021/05/10 05:20:38;;;;;;;2.750001;2.05;;;;;;;17.12;49.35547;94383.33;;;;
2021/05/10 05:21:38;;;;;;;2.750001;2.05;;;;;;;17.12;49.35547;94383.33;;;;
2021/05/10 05:22:39;;;;;;;2.05;1.8;;;;;;;17.57;48.86914;94399.5;;;;
2021/05/10 05:23:39;;;;;;;2.05;1.8;;;;;;;17.57;48.86914;94399.5;;;;
2021/05/10 05:24:40;;;;;;;2.05;1.8;;;;;;;17.57;48.86914;94399.5;;;;
2021/05/10 05:25:40;;;;;;;2.05;1.8;;;;;;;17.57;48.86914;94399.5;;;;
2021/05/10 05:26:41;;;;;;;2.05;1.8;;;;;;;17.57;48.86914;94399.5;;;;
2021/05/10 05:27:41;;;;;;;2.05;1.8;;;;;;;17.57;48.86914;94399.5;;;;
2021/05/10 05:28:42;;;;;;;2.05;1.8;;;;;;;17.57;48.86914;94399.5;;;;
2021/05/10 05:29:43;;;;;;;2.05;1.8;;;;;;;17.57;48.86914;94399.5;;;;
2021/05/10 05:30:43;;;;;;;2.05;1.8;;;;;;;17.57;48.86914;94399.5;;;;
2021/05/10 05:31:44;;;;;;;2.05;1.8;;;;;;;17.57;48.86914;94399.5;;;;
2021/05/10 05:32:44;;;;;;;2.3;2.1;;;;;;;17.96;48.47266;94410.77;;;;
2021/05/10 05:33:44;;;;;;;2.3;2.1;;;;;;;17.96;48.47266;94410.77;;;;
2021/05/10 05:34:45;;;;;;;2.3;2.1;;;;;;;17.96;48.47266;94410.77;;;;
2021/05/10 05:35:45;;;;;;;2.3;2.1;;;;;;;17.96;48.47266;94410.77;;;;
2021/05/10 05:36:46;;;;;;;2.3;2.1;;;;;;;17.96;48.47266;94410.77;;;;
2021/05/10 05:37:47;;;;;;;2.3;2.1;;;;;;;17.96;48.47266;94410.77;;;;
2021/05/10 05:38:47;;;;;;;2.3;2.1;;;;;;;17.96;48.47266;94410.77;;;;
2021/05/10 05:39:48;;;;;;;2.3;2.1;;;;;;;17.96;48.47266;94410.77;;;;
2021/05/10 05:40:48;;;;;;;2.3;2.1;;;;;;;17.96;48.47266;94410.77;;;;
2021/05/10 05:41:50;;;;;;;2.3;2.1;;;;;;;17.96;48.47266;94410.77;;;;
2021/05/10 05:42:50;;;;;;;2.3;2.1;;;;;;;17.96;48.47266;94410.77;;;;
2021/05/10 05:43:51;;;;;;;3.6;2;;;;;;;18.59;47.71875;94415.36;;;;
2021/05/10 05:44:54;;;;;;;3.6;2;;;;;;;18.59;47.71875;94415.36;;;;
2021/05/10 05:45:55;;;;;;;3.6;2;;;;;;;18.59;47.71875;94415.36;;;;
2021/05/10 05:47:00;;;;;;;3.6;2;;;;;;;18.59;47.71875;94415.36;;;;
2021/05/10 05:48:01;;;;;;;3.6;2;;;;;;;18.59;47.71875;94415.36;;;;
2021/05/10 05:49:02;;;;;;;3.6;2;;;;;;;18.59;47.71875;94415.36;;;;
2021/05/10 05:50:03;;;;;;;3.6;2;;;;;;;18.59;47.71875;94415.36;;;;
2021/05/10 05:51:05;;;;;;;3.6;2;;;;;;;18.59;47.71875;94415.36;;;;
2021/05/10 05:52:05;;;;;;;3.6;2;;;;;;;18.59;47.71875;94415.36;;;;
2021/05/10 05:53:06;;;;;;;3.6;2;;;;;;;18.59;47.71875;94415.36;;;;
2021/05/10 05:54:07;;;;;;;2.6;1.9;;;;;;;19.43;46.7627;94431.09;;;;
2021/05/10 05:55:08;;;;;;;2.6;1.9;;;;;;;19.43;46.7627;94431.09;;;;
2021/05/10 05:56:10;;;;;;;2.6;1.9;;;;;;;19.43;46.7627;94431.09;;;;
2021/05/10 05:57:10;;;;;;;2.6;1.9;;;;;;;19.43;46.7627;94431.09;;;;
2021/05/10 05:58:11;;;;;;;2.6;1.9;;;;;;;19.43;46.7627;94431.09;;;;
2021/05/10 05:59:13;;;;;;;2.6;1.9;;;;;;;19.43;46.7627;94431.09;;;;
2021/05/10 06:00:13;;;;;;;2.6;1.9;;;;;;;19.43;46.7627;94431.09;;;;